Flight Track Log - Related Links

Times and Time Zones

All times are in EDT time to prevent confusion due to time zone crossing. See the SWA1729 flight status page for this flight to view local times or setup timezone preferences in your user account.

Time Position Orientation Groundspeed Altitude Reporting Facility
EDT Latitude Longitude Course Direction KTS MPH feet Rate Location/Type
Sat 07:39:08 AM 41.7331 -71.4192 66° East 146 168 1,000  Level Boston Center
Sat 07:39:56 AM 41.7514 -71.3631 66° East 194 223 2,300 2,044 Climbing Boston Center
Sat 07:41:23 AM 41.6861 -71.3058 147° Southeast 236 272 5,600 2,694 Climbing Boston Center
Sat 07:42:23 AM 41.6111 -71.2961 174° South 251 289 8,900 2,700 Climbing Boston Center
Sat 07:43:23 AM 41.5339 -71.2864 175° South 292 336 11,000 2,500 Climbing Boston Center
Sat 07:44:23 AM 41.4406 -71.3381 203° Southwest 329 379 13,900 2,700 Climbing Boston Center
Sat 07:45:23 AM 41.3892 -71.4303 233° Southwest 336 387 16,400 2,650 Climbing Boston Center
Sat 07:46:23 AM 41.3278 -71.5417 234° Southwest 363 418 19,200 2,800 Climbing Boston Center
Sat 07:47:23 AM 41.2514 -71.6478 226° Southwest 373 429 22,000 2,350 Climbing Boston Center
Sat 07:48:23 AM 41.1728 -71.7481 224° Southwest 378 435 23,900 1,800 Climbing Boston Center
Sat 07:49:23 AM 41.1025 -71.8397 225° Southwest 391 450 25,600 1,800 Climbing Boston Center
Sat 07:50:23 AM 41.0217 -71.9450 225° Southwest 402 463 27,500 1,900 Climbing Boston Center
Sat 07:51:23 AM 40.9389 -72.0528 225° Southwest 408 470 29,400 1,950 Climbing Boston Center
Sat 07:52:23 AM 40.8558 -72.1547 223° Southwest 415 478 31,400 1,800 Climbing Boston Center
Sat 07:53:23 AM 40.7728 -72.2592 224° Southwest 415 478 33,000 1,800 Climbing Boston Center
Sat 07:54:23 AM 40.6789 -72.3717 222° Southwest 415 478 35,000 1,850 Climbing Boston Center
Sat 07:55:23 AM 40.5936 -72.4675 220° Southwest 415 478 36,700 1,500 Climbing Boston Center
Sat 07:56:23 AM 40.5206 -72.5683 226° Southwest 410 472 38,000 650 Climbing Boston Center
Sat 07:57:23 AM 40.4433 -72.6664 224° Southwest 398 458 38,000  Level Boston Center
Sat 07:58:23 AM 40.3556 -72.7614 220° Southwest 391 450 38,000  Level Boston Center
Sat 07:59:23 AM 40.2825 -72.8589 226° Southwest 396 456 38,000  Level Boston Center
Sat 08:00:59 AM 40.1647 -73.0125 225° Southwest 383 441 38,000  Level Washington Center
Sat 08:01:57 AM 40.0856 -73.1075 223° Southwest 377 434 38,000  Level Washington Center
Sat 08:02:58 AM 40.0064 -73.2025 223° Southwest 377 434 38,000  Level Washington Center
Sat 08:03:59 AM 39.9289 -73.2944 222° Southwest 383 441 38,000  Level Washington Center
Sat 08:04:56 AM 39.8536 -73.3886 224° Southwest 383 441 38,000  Level Washington Center
Sat 08:05:57 AM 39.7822 -73.4667 220° Southwest 383 441 38,000  Level Washington Center
Sat 08:06:58 AM 39.7044 -73.5606 223° Southwest 383 441 38,000  Level Washington Center
Sat 08:07:59 AM 39.6206 -73.6383 216° Southwest 383 441 38,000  Level Washington Center
Sat 08:08:57 AM 39.5342 -73.7133 214° Southwest 383 441 38,000  Level Washington Center
Sat 08:09:58 AM 39.4497 -73.7881 214° Southwest 378 435 38,000  Level Washington Center
Sat 08:10:59 AM 39.3614 -73.8628 213° Southwest 378 435 38,000  Level Washington Center
Sat 08:11:56 AM 39.2747 -73.9372 214° Southwest 378 435 38,000  Level Washington Center
Sat 08:12:59 AM 39.1883 -74.0117 214° Southwest 378 435 38,000  Level Washington Center
Sat 08:13:57 AM 39.1039 -74.0883 215° Southwest 378 435 38,000  Level Washington Center
Sat 08:14:58 AM 39.0172 -74.1622 214° Southwest 378 435 38,000  Level Washington Center
Sat 08:15:59 AM 38.9306 -74.2361 214° Southwest 378 435 38,000  Level Washington Center
Sat 08:16:59 AM 38.8439 -74.3122 214° Southwest 378 435 38,000  Level Washington Center
Sat 08:17:57 AM 38.7569 -74.3831 212° Southwest 378 435 38,000  Level Washington Center
Sat 08:18:57 AM 38.6742 -74.4536 214° Southwest 372 428 38,000  Level Washington Center
Sat 08:19:57 AM 38.5875 -74.5292 214° Southwest 372 428 38,000  Level Washington Center
Sat 08:20:58 AM 38.4983 -74.5994 212° Southwest 372 428 38,000  Level Washington Center
Sat 08:21:57 AM 38.4050 -74.6539 205° Southwest 372 428 38,000  Level Washington Center
Sat 08:22:57 AM 38.3117 -74.7106 205° Southwest 372 428 38,000  Level Washington Center
Sat 08:23:58 AM 38.2161 -74.7750 208° Southwest 377 434 38,000  Level Washington Center
Sat 08:24:59 AM 38.1228 -74.8317 206° Southwest 382 440 38,000  Level Washington Center
Sat 08:25:57 AM 38.0292 -74.8878 205° Southwest 377 434 38,000  Level Washington Center
Sat 08:26:57 AM 37.9336 -74.9442 205° Southwest 377 434 38,000  Level Washington Center
Sat 08:27:58 AM 37.8400 -74.9975 204° Southwest 377 434 38,000  Level Washington Center
Sat 08:28:56 AM 37.7464 -75.0533 205° Southwest 377 434 38,000  Level Washington Center
Sat 08:29:57 AM 37.6528 -75.1092 205° Southwest 377 434 38,000  Level Washington Center
Sat 08:30:57 AM 37.5592 -75.1647 205° Southwest 377 434 38,000  Level Washington Center
Sat 08:31:58 AM 37.4633 -75.2203 205° Southwest 382 440 38,000  Level Washington Center
Sat 08:32:59 AM 37.3717 -75.2756 206° Southwest 377 434 38,000  Level Washington Center
Sat 08:33:59 AM 37.2739 -75.3308 204° Southwest 377 434 38,000  Level Washington Center
Sat 08:34:57 AM 37.1822 -75.3858 206° Southwest 377 434 38,000  Level Washington Center
Sat 08:35:58 AM 37.0864 -75.4383 204° Southwest 377 434 38,000  Level Washington Center
Sat 08:36:58 AM 36.9906 -75.4956 206° Southwest 382 440 38,000  Level Washington Center
Sat 08:37:59 AM 36.8925 -75.5503 204° Southwest 382 440 38,000 151 Level Washington Center
Sat 08:38:57 AM 36.7964 -75.6050 205° Southwest 382 440 38,300 610 Climbing Washington Center
Sat 08:39:57 AM 36.7006 -75.6619 205° Southwest 382 440 39,200 800 Climbing Washington Center
Sat 08:40:57 AM 36.6025 -75.7161 204° Southwest 382 440 39,900 400 Climbing Washington Center
Sat 08:41:57 AM 36.5314 -75.8117 227° Southwest 382 440 40,000 50 Climbing Washington Center
Sat 08:42:57 AM 36.5081 -75.9458 258° West 369 425 40,000  Level Washington Center
Sat 08:43:58 AM 36.4931 -76.0803 262° West 374 430 40,000  Level Washington Center
Sat 08:44:59 AM 36.4819 -76.2247 265° West 386 444 40,000  Level Washington Center
Sat 08:45:59 AM 36.4353 -76.3331 242° Southwest 360 414 40,000  Level Washington Center
Sat 08:46:57 AM 36.3328 -76.3758 199° South 342 394 40,000  Level Washington Center
Sat 08:47:57 AM 36.2325 -76.4236 201° Southwest 362 417 40,000  Level Washington Center
Sat 08:48:57 AM 36.1342 -76.4689 200° South 368 423 40,000  Level Washington Center
Sat 08:49:59 AM 36.0356 -76.5142 200° South 380 437 40,000  Level Washington Center
Sat 08:50:57 AM 35.9372 -76.5567 199° South 380 437 40,000  Level Washington Center
Sat 08:51:58 AM 35.8408 -76.6042 202° Southwest 380 437 40,000  Level Washington Center
Sat 08:52:58 AM 35.7403 -76.6539 202° Southwest 380 437 40,000  Level Washington Center
Sat 08:53:57 AM 35.6439 -76.6989 201° Southwest 380 437 40,000  Level Washington Center
Sat 08:54:57 AM 35.5414 -76.7433 199° South 380 437 40,000  Level Washington Center
Sat 08:55:57 AM 35.4447 -76.7903 202° Southwest 380 437 40,000  Level Washington Center
Sat 08:56:57 AM 35.3547 -76.8322 201° Southwest 380 437 40,000  Level Washington Center
Sat 08:57:58 AM 35.2561 -76.8817 202° Southwest 385 443 40,000  Level Washington Center
Sat 08:58:59 AM 35.1533 -76.9283 200° South 390 449 40,000  Level Washington Center
Sat 08:59:57 AM 35.0442 -76.9822 202° Southwest 390 449 40,000  Level Washington Center
Sat 09:00:58 AM 34.9436 -77.0286 201° Southwest 390 449 40,000  Level Washington Center
Sat 09:01:59 AM 34.8386 -77.0750 200° South 390 449 40,000  Level Washington Center
Sat 09:02:59 AM 34.7400 -77.1236 202° Southwest 390 449 40,000  Level Washington Center
Sat 09:03:56 AM 34.6581 -77.1600 200° South 390 449 40,000  Level Washington Center
Sat 09:04:57 AM 34.5364 -77.2131 200° South 390 449 40,000  Level Washington Center
Sat 09:05:58 AM 34.4336 -77.2589 200° South 390 449 40,000  Level Washington Center
Sat 09:08:21 AM 34.1889 -77.3675 200° South 390 449 40,000  Level Jacksonville Center
Sat 09:09:21 AM 34.0886 -77.4117 200° South 390 449 40,000  Level Jacksonville Center
Sat 09:10:21 AM 33.9883 -77.4578 201° Southwest 385 443 40,000  Level Jacksonville Center
Sat 09:11:21 AM 33.8861 -77.5017 200° South 385 443 40,000  Level Jacksonville Center
Sat 09:12:21 AM 33.7942 -77.5475 203° Southwest 385 443 40,000  Level Jacksonville Center
Sat 09:13:21 AM 33.6936 -77.5883 199° South 385 443 40,000  Level Jacksonville Center
Sat 09:14:21 AM 33.5911 -77.6344 201° Southwest 385 443 40,000  Level Jacksonville Center
Sat 09:15:21 AM 33.4886 -77.6778 199° South 390 449 40,000  Level Jacksonville Center
Sat 09:16:21 AM 33.3864 -77.7261 202° Southwest 390 449 40,000  Level Jacksonville Center
Sat 09:17:21 AM 33.2839 -77.7694 199° South 395 455 40,000  Level Jacksonville Center
Sat 09:18:21 AM 33.1811 -77.8125 199° South 395 455 40,000  Level Jacksonville Center
Sat 09:19:21 AM 33.0767 -77.8606 201° Southwest 401 461 40,000  Level Jacksonville Center
Sat 09:20:21 AM 32.9742 -77.9058 200° South 401 461 40,000  Level Jacksonville Center
Sat 09:21:21 AM 32.8717 -77.9511 200° South 401 461 40,000  Level Jacksonville Center
Sat 09:22:21 AM 32.7669 -77.9964 200° South 401 461 40,000  Level Jacksonville Center
Sat 09:23:21 AM 32.6664 -78.0414 201° Southwest 401 461 40,000  Level Jacksonville Center
Sat 09:24:21 AM 32.5636 -78.0839 199° South 401 461 40,000  Level Jacksonville Center
Sat 09:25:21 AM 32.4589 -78.1264 199° South 401 461 40,000  Level Jacksonville Center
Sat 09:26:21 AM 32.3583 -78.1733 202° Southwest 401 461 40,000  Level Jacksonville Center
Sat 09:27:21 AM 32.2514 -78.2181 199° South 401 461 40,000  Level Jacksonville Center
Sat 09:28:21 AM 32.1406 -78.2706 202° Southwest 401 461 40,000  Level Jacksonville Center
Sat 09:29:21 AM 32.0317 -78.3175 200° South 407 468 40,000  Level Jacksonville Center
Sat 09:30:21 AM 31.9289 -78.3619 200° South 407 468 40,000  Level Jacksonville Center
Sat 09:31:21 AM 31.8242 -78.4086 201° Southwest 407 468 40,000  Level Jacksonville Center
Sat 09:32:21 AM 31.7192 -78.4528 200° South 400 460 40,000  Level Jacksonville Center
Sat 09:33:21 AM 31.6144 -78.4967 200° South 408 470 40,000  Level Jacksonville Center
Sat 09:34:21 AM 31.5094 -78.5406 200° South 399 459 40,000  Level Jacksonville Center
Sat 09:35:21 AM 31.4044 -78.5869 201° Southwest 407 468 40,000  Level Jacksonville Center
Sat 09:36:21 AM 31.2994 -78.6306 200° South 407 468 40,000  Level Jacksonville Center
Sat 09:37:21 AM 31.1944 -78.6742 200° South 401 461 40,000  Level Jacksonville Center
Sat 09:38:21 AM 31.0894 -78.7178 200° South 405 466 40,000  Level Jacksonville Center
Sat 09:39:21 AM 30.9908 -78.7633 202° Southwest 412 474 40,000  Level Jacksonville Center
Sat 09:41:33 AM 30.7539 -78.8606 199° South 408 470 40,000  Level Miami Center
Sat 09:42:33 AM 30.6450 -78.9019 198° South 421 484 40,000  Level Miami Center
Sat 09:43:33 AM 30.5339 -78.9478 200° South 414 476 40,000  Level Miami Center
Sat 09:44:33 AM 30.4250 -78.9889 198° South 412 474 40,000  Level Miami Center
Sat 09:45:33 AM 30.3181 -79.0231 195° South 405 466 40,000  Level Miami Center
Sat 09:46:33 AM 30.2094 -79.0494 192° South 412 474 40,000  Level Miami Center
Sat 09:47:33 AM 30.0964 -79.0808 194° South 412 474 40,000  Level Miami Center
Sat 09:48:33 AM 29.9978 -79.1100 194° South 417 480 40,000  Level Miami Center
Sat 09:49:33 AM 29.8889 -79.1436 195° South 411 473 40,000  Level Miami Center
Sat 09:50:33 AM 29.7717 -79.1672 190° South 411 473 40,000  Level Miami Center
Sat 09:51:33 AM 29.6647 -79.2033 196° South 416 479 40,000  Level Miami Center
Sat 09:52:33 AM 29.5475 -79.2294 191° South 421 484 40,000  Level Miami Center
Sat 09:53:33 AM 29.4344 -79.2556 191° South 420 483 40,000  Level Miami Center
Sat 09:54:33 AM 29.3172 -79.2792 190° South 420 483 40,000  Level Miami Center
Sat 09:55:33 AM 29.2000 -79.3075 192° South 415 478 40,000  Level Miami Center
Sat 09:56:33 AM 29.0889 -79.3381 194° South 420 483 40,000  Level Miami Center
Sat 09:57:33 AM 28.9736 -79.3664 192° South 420 483 40,000  Level Miami Center
Sat 09:58:33 AM 28.8583 -79.3969 193° South 420 483 40,000  Level Miami Center
Sat 09:59:33 AM 28.7450 -79.4275 193° South 420 483 40,000  Level Miami Center
Sat 10:00:33 AM 28.6278 -79.4533 191° South 425 489 40,000  Level Miami Center
Sat 10:01:33 AM 28.5103 -79.4836 193° South 430 495 40,000  Level Miami Center
Sat 10:02:33 AM 28.3950 -79.5092 191° South 430 495 40,000  Level Miami Center
Sat 10:03:33 AM 28.2797 -79.5394 193° South 430 495 40,000  Level Miami Center
Sat 10:04:33 AM 28.1625 -79.5672 192° South 430 495 40,000 -550 Level Miami Center
Sat 10:05:33 AM 28.0469 -79.5953 192° South 430 495 38,900 -1,850 Descending Miami Center
Sat 10:06:33 AM 27.9297 -79.6228 192° South 430 495 36,300 -2,750 Descending Miami Center
Sat 10:07:33 AM 27.8081 -79.6528 192° South 422 486 33,400 -2,500 Descending Miami Center
Sat 10:08:33 AM 27.6947 -79.6806 192° South 417 480 31,300 -2,100 Descending Miami Center
Sat 10:09:33 AM 27.5856 -79.7083 193° South 411 473 29,200 -2,050 Descending Miami Center
Sat 10:10:33 AM 27.4894 -79.7083 180° South 378 435 27,200 -2,000 Descending Miami Center
Sat 10:11:33 AM 27.4075 -79.6289 139° Southeast 368 423 25,200 -2,200 Descending Miami Center
Sat 10:12:33 AM 27.3194 -79.5333 136° Southeast 393 452 22,800 -2,200 Descending Miami Center
Sat 10:13:33 AM 27.2481 -79.4500 134° Southeast 388 447 20,800 -2,000 Descending Miami Center
Sat 10:14:33 AM 27.1719 -79.3711 137° Southeast 378 435 18,800 -1,900 Descending Miami Center
Sat 10:15:33 AM 27.1064 -79.2997 136° Southeast 371 427 17,000 -950 Descending Miami Center
Sat 10:16:33 AM 27.0347 -79.2214 136° Southeast 351 404 16,900 -50 Descending Miami Center
Sat 10:17:33 AM 26.9628 -79.1406 135° Southeast 351 404 16,900  Level Miami Center
Sat 10:18:33 AM 26.8889 -79.0600 136° Southeast 351 404 16,900  Level Miami Center
Sat 10:19:33 AM 26.8231 -78.9867 135° Southeast 351 404 16,900  Level Miami Center
Sat 10:20:33 AM 26.7450 -78.9039 137° Southeast 356 410 16,900  Level Miami Center
Sat 10:21:33 AM 26.6772 -78.8258 134° Southeast 356 410 16,900  Level Miami Center
Sat 10:22:33 AM 26.6028 -78.7481 137° Southeast 361 415 16,900  Level Miami Center
Sat 10:23:33 AM 26.5133 -78.7350 173° South 350 403 16,900 -600 Level Miami Center
Sat 10:24:33 AM 26.4311 -78.7917 212° Southwest 299 344 15,700 -1,650 Descending Miami Center
Sat 10:25:33 AM 26.3467 -78.8458 210° Southwest 324 373 13,600 -2,100 Descending Miami Center
Sat 10:26:33 AM 26.2728 -78.9025 215° Southwest 324 373 11,500 -1,850 Descending Miami Center
Sat 10:27:33 AM 26.1989 -78.9661 218° Southwest 335 386 9,900 -800 Descending Miami Center
Sat 10:28:33 AM 26.1558 -79.0442 238° Southwest 311 358 9,900 -500 Level Miami Center
Sat 10:29:33 AM 26.1192 -79.1244 243° Southwest 306 352 8,900 -1,250 Descending Miami Center
Sat 10:30:33 AM 26.0761 -79.2000 238° Southwest 306 352 7,400 -1,450 Descending Miami Center
Sat 10:31:33 AM 26.0353 -79.2778 240° Southwest 300 345 6,000 -700 Descending Miami Center
Sat 10:32:33 AM 25.9964 -79.3486 239° Southwest 289 333 6,000  Level Miami Center
Sat 10:33:33 AM 25.9619 -79.4128 239° Southwest 284 327 6,000  Level Miami Center
Sat 10:33:48 AM 25.9489 -79.4447 246° West 270 311 6,000  Level Miami Center
Sat 10:34:33 AM 25.9208 -79.4950 238° Southwest 279 321 6,000  Level Miami Center
Sat 10:35:33 AM 25.8797 -79.5703 239° Southwest 270 311 6,000  Level Miami Center
Sat 10:36:28 AM 25.8533 -79.6411 248° West 277 319 6,000  Level Miami Center
Sat 10:37:29 AM 25.8853 -79.7181 295° West 275 316 6,000  Level Miami Center
Sat 10:38:24 AM 25.9153 -79.7906 295° West 277 319 6,000  Level Miami Center
Sat 10:39:25 AM 25.9492 -79.8675 296° West 275 316 6,000 -47 Level Miami Center
Sat 10:40:33 AM 25.9975 -79.9450 305° West 273 314 5,900 -47 Descending Miami Center
Sat 10:41:33 AM 26.0442 -80.0133 307° West 278 320 5,900 49 Level Miami Center
Sat 10:42:35 AM 26.0864 -80.0883 302° West 279 321 6,000 -103 Climbing Miami Center
Sat 10:43:30 AM 26.1250 -80.1403 310° West 233 268 5,700 -738 Descending Miami Center
Sat 10:44:37 AM 26.1483 -80.2150 289° West 222 255 4,500 -938 Descending Miami Center
Sat 10:45:38 AM 26.1489 -80.2844 271° West 220 253 3,700 -984 Descending Miami Center
Sat 10:46:39 AM 26.1269 -80.3325 243° Southwest 205 236 2,500 -934 Descending Miami Center
Sat 10:47:40 AM 26.0900 -80.2944 137° Southeast 183 211 1,800 -585 Descending Miami Center
Sat 10:48:42 AM 26.0744 -80.2478 110° East 150 173 1,300 -585 Descending Miami Center
Sat 10:49:43 AM 26.0756 -80.2014 88° East 136 157 600 -689 Descending Miami Center
Sat 10:51:00 AM 26.0667 -80.1500 77° East  Level FlightAware Approximate
Sat 10:58:00 AM 26.0726 -80.1527 77° East  Level Estimated

Login

Don't have an account? Register now (free) for customized features, flight alerts, and more!